Time;durP1;ratioP1;P1;durP2;ratioP2;P2;SDS_P1;SDS_P2;PMS_P1;PMS_P2;Temp;Humidity;BMP_temperature;BMP_pressure;BME280_temperature;BME280_humidity;BME280_pressure;Samples;Min_cycle;Max_cycle;Signal;HPM_P1;HPM_P2
2022/04/23 00:01:42;;;;;;;11.02;8.15;;;10.50;99.90;;;9.88;100.00;96149.50;5083364;28;20135;-73
2022/04/23 00:04:13;;;;;;;12.15;10.35;;;10.50;99.90;;;9.80;100.00;96153.38;5079958;28;20530;-72
2022/04/23 00:06:40;;;;;;;10.90;8.80;;;10.60;99.90;;;9.93;100.00;96156.03;5082890;28;20078;-72
2022/04/23 00:09:07;;;;;;;15.02;9.38;;;10.60;99.90;;;9.87;100.00;96156.41;5080454;28;20127;-72
2022/04/23 00:11:34;;;;;;;10.75;9.40;;;10.70;99.90;;;9.81;100.00;96155.03;5074354;28;20783;-72
2022/04/23 00:14:04;;;;;;;13.25;9.60;;;10.60;99.90;;;9.82;100.00;96156.69;5079762;28;20048;-72
2022/04/23 00:16:32;;;;;;;13.52;10.23;;;10.60;99.90;;;9.81;100.00;96156.81;5081764;28;20051;-72
2022/04/23 00:18:59;;;;;;;14.05;10.40;;;10.60;99.90;;;9.81;100.00;96152.44;5078563;28;20410;-73
2022/04/23 00:21:26;;;;;;;12.48;10.65;;;10.60;99.90;;;9.81;100.00;96152.44;5081083;28;20154;-72
2022/04/23 00:23:53;;;;;;;14.80;11.45;;;10.60;99.90;;;9.81;100.00;96143.84;5082040;28;20109;-72
2022/04/23 00:26:20;;;;;;;14.85;11.10;;;10.60;99.90;;;9.77;100.00;96143.19;5077704;28;20398;-72
2022/04/23 00:28:47;;;;;;;16.17;11.60;;;10.50;99.90;;;9.72;100.00;96141.84;5082199;28;20089;-72
2022/04/23 00:31:14;;;;;;;14.85;11.55;;;10.50;99.90;;;9.69;100.00;96145.41;5077626;28;20047;-74
2022/04/23 00:33:41;;;;;;;15.52;11.65;;;10.40;99.90;;;9.68;100.00;96145.53;5081307;28;20044;-72
2022/04/23 00:36:10;;;;;;;15.63;11.13;;;10.40;99.90;;;9.66;100.00;96145.63;5080201;28;20132;-74
2022/04/23 00:38:40;;;;;;;14.65;11.15;;;10.40;99.90;;;9.92;100.00;96145.75;5078051;28;20506;-73
2022/04/23 00:41:43;;;;;;;14.63;11.95;;;10.40;99.90;;;9.88;100.00;96150.31;5075962;28;20080;-74
2022/04/23 00:43:56;;;;;;;14.65;11.02;;;10.40;99.90;;;9.94;100.00;96147.31;5072817;28;20123;-73
2022/04/23 00:46:23;;;;;;;12.50;11.20;;;10.30;99.90;;;9.94;100.00;96147.31;5077381;28;20589;-73
2022/04/23 00:48:50;;;;;;;17.08;11.45;;;10.40;99.90;;;9.79;100.00;96153.47;5081674;28;20101;-73
2022/04/23 00:51:17;;;;;;;14.52;11.60;;;10.30;99.90;;;9.73;100.00;96148.66;5078196;28;20119;-73
2022/04/23 00:53:47;;;;;;;17.17;13.07;;;10.30;99.90;;;9.65;100.00;96143.97;5080968;28;20040;-73
2022/04/23 00:56:14;;;;;;;15.73;13.30;;;10.30;99.90;;;9.70;100.00;96147.09;5082150;28;20048;-73
2022/04/23 00:58:41;;;;;;;12.95;11.52;;;10.20;99.90;;;9.69;100.00;96149.78;5089060;28;20052;-74
2022/04/23 01:01:08;;;;;;;16.27;13.40;;;10.20;99.90;;;9.62;100.00;96154.50;5083417;28;20478;-73
2022/04/23 01:03:36;;;;;;;17.30;13.52;;;10.10;99.90;;;9.61;100.00;96151.09;5083210;28;20113;-74
2022/04/23 01:06:04;;;;;;;16.83;13.18;;;10.00;99.90;;;9.46;100.00;96153.78;5082868;28;20071;-73
2022/04/23 01:08:31;;;;;;;21.33;13.48;;;10.00;99.90;;;9.44;100.00;96153.88;5081799;28;20937;-73
2022/04/23 01:10:59;;;;;;;17.70;14.07;;;10.00;99.90;;;9.39;100.00;96145.56;5078989;28;20044;-74
2022/04/23 01:13:26;;;;;;;15.88;14.27;;;9.90;99.90;;;9.32;100.00;96147.69;5079211;28;20559;-74
2022/04/23 01:16:05;;;;;;;20.45;14.73;;;9.80;99.90;;;9.26;100.00;96153.25;5075631;28;20093;-74
2022/04/23 01:18:34;;;;;;;17.38;14.57;;;9.70;99.90;;;9.35;100.00;96144.06;5081182;28;20098;-74
2022/04/23 01:21:02;;;;;;;16.30;13.73;;;9.70;99.90;;;9.26;100.00;96140.31;5081230;28;20468;-74
2022/04/23 01:23:30;;;;;;;16.02;14.32;;;9.70;99.90;;;9.18;100.00;96139.91;5075283;28;20056;-74
2022/04/23 01:25:58;;;;;;;19.98;15.75;;;9.60;99.90;;;9.07;100.00;96140.56;5061737;28;20114;-74
2022/04/23 01:28:27;;;;;;;17.60;14.18;;;9.60;99.90;;;9.22;100.00;96136.22;5078964;28;20052;-74
2022/04/23 01:30:58;;;;;;;16.35;14.00;;;9.60;99.90;;;9.07;100.00;96140.56;5078837;28;20051;-72
2022/04/23 01:33:26;;;;;;;22.52;15.00;;;9.60;99.90;;;8.96;100.00;96136.03;5083555;28;20121;-72
2022/04/23 01:35:53;;;;;;;17.33;15.50;;;9.60;99.90;;;8.86;100.00;96128.91;5083033;28;20130;-74
2022/04/23 01:38:20;;;;;;;19.88;16.55;;;9.50;99.90;;;8.83;100.00;96126.50;5082438;28;20048;-72
2022/04/23 01:40:47;;;;;;;16.27;14.50;;;9.50;99.90;;;8.79;100.00;96124.06;5082874;28;20051;-74
2022/04/23 01:43:14;;;;;;;20.83;16.10;;;9.30;99.90;;;8.72;100.00;96127.94;5082723;28;20990;-74
2022/04/23 01:45:41;;;;;;;18.45;16.27;;;9.30;99.90;;;8.60;100.00;96123.50;5083113;28;20127;-74
2022/04/23 01:48:08;;;;;;;20.27;16.60;;;9.30;99.90;;;8.67;100.00;96118.81;5082645;28;20051;-74
2022/04/23 01:50:35;;;;;;;22.15;17.35;;;9.30;99.90;;;8.63;100.00;96119.91;5084059;28;20090;-74
2022/04/23 01:53:03;;;;;;;19.58;16.83;;;9.20;99.90;;;8.56;100.00;96119.41;5079362;28;20496;-74
2022/04/23 01:55:31;;;;;;;21.15;17.33;;;9.20;99.90;;;8.49;100.00;96124.09;5078684;28;20450;-74
2022/04/23 01:57:58;;;;;;;24.67;18.10;;;9.10;99.90;;;8.42;100.00;96127.16;5081956;28;20135;-74
2022/04/23 02:00:26;;;;;;;19.33;17.02;;;9.10;99.90;;;8.47;100.00;96130.28;5083536;28;20135;-74
2022/04/23 02:02:54;;;;;;;19.05;16.70;;;9.10;99.90;;;8.39;100.00;96133.25;5081119;28;20056;-74
2022/04/23 02:05:22;;;;;;;20.38;18.17;;;9.00;99.90;;;8.37;100.00;96129.97;5079468;28;20045;-74
2022/04/23 02:07:49;;;;;;;22.65;18.02;;;9.00;99.90;;;8.33;100.00;96129.28;5082079;28;20081;-73
2022/04/23 02:10:16;;;;;;;19.60;17.63;;;9.00;99.90;;;8.35;100.00;96140.38;5083690;28;20132;-73
2022/04/23 02:12:45;;;;;;;23.38;17.13;;;9.00;99.90;;;8.40;100.00;96140.16;5080972;28;20214;-73
2022/04/23 02:15:15;;;;;;;21.95;17.98;;;9.00;99.90;;;8.03;100.00;96142.19;5082247;28;20450;-74
2022/04/23 02:17:44;;;;;;;21.88;16.98;;;9.00;99.90;;;8.07;100.00;96135.06;5083728;28;20143;-74
2022/04/23 02:20:15;;;;;;;23.83;17.58;;;9.00;99.90;;;8.06;100.00;96143.75;5080161;28;20753;-74
2022/04/23 02:22:45;;;;;;;23.75;16.95;;;9.00;99.90;;;8.06;100.00;96141.19;5083358;28;20048;-73
2022/04/23 02:25:12;;;;;;;27.23;17.17;;;9.00;99.90;;;8.03;100.00;96144.78;5066513;28;20043;-73
2022/04/23 02:27:47;;;;;;;22.52;17.02;;;9.00;99.90;;;8.00;100.00;96142.34;5082920;28;20052;-73
2022/04/23 02:30:17;;;;;;;22.25;17.02;;;9.00;99.90;;;7.95;100.00;96142.59;5084394;28;20131;-74
2022/04/23 02:32:45;;;;;;;21.15;17.02;;;9.10;99.90;;;7.97;100.00;96139.94;5081376;28;20052;-73
2022/04/23 02:35:16;;;;;;;21.27;17.52;;;9.00;99.90;;;8.00;100.00;96147.50;5080196;28;20051;-73
2022/04/23 02:37:48;;;;;;;20.60;15.98;;;9.00;99.90;;;8.07;100.00;96155.75;5069651;28;20469;-73
2022/04/23 02:40:16;;;;;;;23.52;17.90;;;9.00;99.90;;;8.06;100.00;96159.28;5066742;28;20070;-74
2022/04/23 02:42:44;;;;;;;25.77;18.30;;;9.00;99.90;;;8.08;100.00;96155.69;5085524;28;20148;-74
2022/04/23 02:45:15;;;;;;;25.85;18.20;;;9.00;99.90;;;8.09;100.00;96146.16;5081356;28;20040;-73
2022/04/23 02:47:54;;;;;;;22.13;18.50;;;9.00;99.90;;;8.08;100.00;96155.69;5066658;28;20444;-73
2022/04/23 02:50:27;;;;;;;25.05;18.20;;;9.00;99.90;;;8.08;100.00;96154.84;5082003;28;20524;-74
2022/04/23 02:52:56;;;;;;;25.77;18.17;;;9.00;99.90;;;8.07;100.00;96145.41;5082744;28;20241;-73
2022/04/23 02:55:25;;;;;;;21.02;17.27;;;9.00;99.90;;;8.15;100.00;96156.16;5059380;28;20189;-73
2022/04/23 02:57:53;;;;;;;20.95;17.17;;;9.10;99.90;;;8.16;100.00;96142.31;5084825;28;20040;-73
2022/04/23 03:00:20;;;;;;;21.65;18.15;;;9.10;99.90;;;8.15;100.00;96148.41;5081652;28;20145;-74
2022/04/23 03:02:47;;;;;;;21.50;17.15;;;9.00;99.90;;;8.12;100.00;96143.44;5081212;28;20435;-73
2022/04/23 03:05:16;;;;;;;22.58;17.75;;;9.10;99.90;;;8.04;100.00;96150.75;5084297;28;20412;-74
2022/04/23 03:07:45;;;;;;;21.48;17.70;;;9.10;99.90;;;8.10;100.00;96146.09;5082497;28;20082;-73
2022/04/23 03:10:15;;;;;;;22.85;18.10;;;9.00;99.90;;;8.10;100.00;96140.09;5079337;28;20056;-74
2022/04/23 03:12:44;;;;;;;26.05;18.30;;;9.00;99.90;;;8.10;100.00;96150.44;5081300;28;20135;-73
2022/04/23 03:15:19;;;;;;;22.10;18.35;;;9.00;99.90;;;8.03;100.00;96142.19;5080619;28;20040;-73
2022/04/23 03:17:46;;;;;;;21.42;17.80;;;9.00;99.90;;;8.10;100.00;96145.28;5066741;28;20044;-73
2022/04/23 03:20:14;;;;;;;23.90;17.55;;;9.00;99.90;;;8.01;100.00;96150.94;5080693;28;20044;-73
2022/04/23 03:22:43;;;;;;;24.80;18.70;;;9.00;99.90;;;7.96;100.00;96146.03;5078749;28;20044;-73
2022/04/23 03:25:11;;;;;;;22.98;16.83;;;9.00;99.90;;;7.99;100.00;96145.84;5077289;28;20074;-73
2022/04/23 03:27:38;;;;;;;22.05;17.23;;;9.00;99.90;;;7.97;100.00;96147.69;5083201;28;20128;-73
2022/04/23 03:30:06;;;;;;;21.52;17.67;;;9.00;99.90;;;7.86;100.00;96144.84;5081048;28;20191;-74
2022/04/23 03:32:34;;;;;;;22.33;17.58;;;8.90;99.90;;;7.91;100.00;96145.44;5078142;28;20048;-73
2022/04/23 03:35:02;;;;;;;23.55;18.17;;;8.90;99.90;;;7.78;100.00;96139.25;5078535;28;20367;-74
2022/04/23 03:37:29;;;;;;;24.40;18.17;;;8.90;99.90;;;7.73;100.00;96149.84;5082032;28;20097;-73
2022/04/23 03:39:56;;;;;;;25.05;19.17;;;8.90;99.90;;;7.81;100.00;96142.53;5084217;28;20439;-73
2022/04/23 03:42:23;;;;;;;23.08;18.80;;;8.80;99.90;;;7.77;100.00;96146.19;5080686;28;20848;-73
2022/04/23 03:44:50;;;;;;;24.00;19.80;;;8.70;99.90;;;7.63;100.00;96144.34;5085589;28;20135;-73
2022/04/23 03:47:17;;;;;;;22.60;18.23;;;8.70;99.90;;;7.62;100.00;96141.84;5081602;28;20107;-73
2022/04/23 03:49:44;;;;;;;23.92;18.63;;;8.70;99.90;;;7.48;100.00;96148.59;5082732;28;20058;-73
2022/04/23 03:52:11;;;;;;;23.60;19.48;;;8.60;99.90;;;7.41;100.00;96151.56;5080391;28;20048;-74
2022/04/23 03:54:38;;;;;;;28.48;19.77;;;8.50;99.90;;;7.30;100.00;96142.66;5078092;28;20367;-73
2022/04/23 03:57:06;;;;;;;25.48;18.27;;;8.50;99.90;;;7.45;100.00;96140.16;5080343;28;20694;-73
2022/04/23 03:59:35;;;;;;;26.42;20.48;;;8.40;99.90;;;7.60;100.00;96147.09;5077460;28;20052;-73
2022/04/23 04:02:04;;;;;;;25.70;19.77;;;8.30;99.90;;;7.57;100.00;96147.25;5065504;28;20084;-73
2022/04/23 04:04:34;;;;;;;25.30;20.23;;;8.20;99.90;;;7.57;100.00;96144.66;5064997;28;20051;-73
2022/04/23 04:07:02;;;;;;;27.10;20.83;;;8.20;99.90;;;7.44;100.00;96144.50;5081714;28;20063;-73
2022/04/23 04:09:29;;;;;;;25.77;19.70;;;8.20;99.90;;;7.45;100.00;96145.34;5081262;28;20044;-72
2022/04/23 04:12:02;;;;;;;26.13;20.27;;;8.10;99.90;;;7.31;100.00;96136.56;5083000;28;20530;-73
2022/04/23 04:14:35;;;;;;;29.42;21.38;;;8.10;99.90;;;7.12;100.00;96138.47;5079998;28;20051;-73
2022/04/23 04:17:09;;;;;;;23.15;18.98;;;8.10;99.90;;;7.18;100.00;96139.88;5079512;28;20064;-73
2022/04/23 04:19:38;;;;;;;27.05;21.08;;;8.00;99.90;;;6.83;100.00;96143.34;5077028;28;20146;-73
2022/04/23 04:22:08;;;;;;;26.80;23.05;;;8.00;99.90;;;6.88;100.00;96145.69;5075939;28;20051;-73
2022/04/23 04:24:36;;;;;;;26.95;23.27;;;8.00;99.90;;;7.12;100.00;96151.34;5081261;28;20040;-73
2022/04/23 04:27:06;;;;;;;26.85;23.00;;;7.90;99.90;;;7.22;100.00;96144.78;5080654;28;20052;-73
2022/04/23 04:29:33;;;;;;;28.45;23.08;;;7.90;99.90;;;7.00;100.00;96136.50;5081251;28;20113;-73
2022/04/23 04:32:00;;;;;;;25.85;23.05;;;7.80;99.90;;;7.02;100.00;96145.81;5083941;28;20072;-73
2022/04/23 04:34:30;;;;;;;26.80;22.60;;;7.80;99.90;;;7.06;100.00;96141.34;5078102;28;20161;-73
2022/04/23 04:37:09;;;;;;;25.67;22.83;;;7.70;99.90;;;7.06;100.00;96146.50;5079227;28;20490;-73
2022/04/23 04:39:41;;;;;;;26.90;23.88;;;7.70;99.90;;;6.96;100.00;96137.59;5085404;28;20102;-73
2022/04/23 04:42:10;;;;;;;27.55;24.63;;;7.70;99.90;;;6.96;100.00;96146.16;5084259;28;20070;-73
2022/04/23 04:44:39;;;;;;;27.63;23.67;;;7.60;99.90;;;6.74;100.00;96137.81;5077099;28;20080;-73
2022/04/23 04:47:08;;;;;;;28.13;22.58;;;7.60;99.90;;;7.05;100.00;96142.28;5081345;28;20052;-73
2022/04/23 04:49:39;;;;;;;25.48;22.77;;;7.60;99.90;;;6.99;100.00;96142.56;5076601;28;20106;-73
2022/04/23 04:52:07;;;;;;;30.45;23.73;;;7.60;99.90;;;7.09;100.00;96139.44;5078302;28;20055;-73
2022/04/23 04:54:34;;;;;;;28.27;24.13;;;7.70;99.90;;;7.12;100.00;96148.78;5080213;28;20058;-73
2022/04/23 04:57:03;;;;;;;29.58;24.85;;;7.80;99.90;;;7.19;100.00;96157.88;5076538;28;20112;-73
2022/04/23 04:59:31;;;;;;;25.88;22.73;;;7.70;99.90;;;7.19;100.00;96149.28;5080437;28;20054;-73
2022/04/23 05:02:02;;;;;;;27.02;24.10;;;7.80;99.90;;;6.97;100.00;96165.03;5080072;28;20120;-73
2022/04/23 05:04:30;;;;;;;28.05;23.98;;;7.80;99.90;;;7.05;100.00;96170.66;5081314;28;20047;-73
2022/04/23 05:06:57;;;;;;;30.48;25.23;;;7.90;99.90;;;7.19;100.00;96169.94;5075595;28;20123;-73
2022/04/23 05:09:24;;;;;;;27.27;24.25;;;8.00;99.90;;;7.16;100.00;96170.94;5090041;28;20144;-73
2022/04/23 05:11:51;;;;;;;30.23;25.48;;;8.00;99.90;;;7.41;100.00;96169.63;5081329;28;20131;-73
2022/04/23 05:14:18;;;;;;;32.03;24.33;;;8.10;99.90;;;7.50;100.00;96161.41;5087744;28;20088;-73
2022/04/23 05:16:45;;;;;;;27.17;23.73;;;8.10;99.90;;;7.57;100.00;96167.91;5082264;28;20044;-74
2022/04/23 05:19:13;;;;;;;26.58;23.77;;;8.20;99.90;;;7.63;100.00;96164.19;5082598;28;20056;-73
2022/04/23 05:21:40;;;;;;;28.77;23.65;;;8.30;99.90;;;7.66;100.00;96164.00;5079497;28;20720;-73
2022/04/23 05:24:07;;;;;;;28.23;24.38;;;8.30;99.90;;;7.67;100.00;96169.09;5080004;28;20134;-73
2022/04/23 05:26:35;;;;;;;27.85;23.98;;;8.30;99.90;;;7.69;100.00;96169.84;5085935;28;20483;-73
2022/04/23 05:29:03;;;;;;;27.40;23.13;;;8.30;99.90;;;7.58;100.00;96179.09;5086224;28;20600;-72
2022/04/23 05:31:32;;;;;;;27.55;24.10;;;8.30;99.90;;;7.77;100.00;96176.34;5081411;28;20098;-73
2022/04/23 05:34:00;;;;;;;27.27;24.38;;;8.30;99.90;;;7.46;100.00;96181.41;5081653;28;20048;-73
2022/04/23 05:36:27;;;;;;;26.80;23.45;;;8.40;99.90;;;7.79;100.00;96179.69;5082805;28;20047;-73
2022/04/23 05:38:55;;;;;;;27.63;23.83;;;8.40;99.90;;;7.79;100.00;96183.09;5081786;28;20532;-73
2022/04/23 05:41:23;;;;;;;27.25;23.63;;;8.40;99.90;;;7.51;100.00;96181.16;5083601;28;20652;-73
2022/04/23 05:43:50;;;;;;;26.50;23.70;;;8.40;99.90;;;7.58;100.00;96195.41;5077092;28;20114;-73
2022/04/23 05:46:17;;;;;;;28.13;23.98;;;8.40;99.90;;;7.72;100.00;96185.16;5084722;28;20131;-73
2022/04/23 05:48:44;;;;;;;27.38;24.55;;;8.50;99.90;;;7.72;100.00;96197.25;5081201;28;20114;-73
2022/04/23 05:51:11;;;;;;;26.73;22.45;;;8.50;99.90;;;7.95;100.00;96196.03;5081162;28;20070;-73
2022/04/23 05:53:38;;;;;;;28.08;23.67;;;8.50;99.90;;;7.92;100.00;96188.44;5080468;28;20127;-73
2022/04/23 05:56:05;;;;;;;25.80;22.95;;;8.60;99.90;;;8.11;100.00;96190.84;5078642;28;20128;-73
2022/04/23 05:58:35;;;;;;;26.20;23.27;;;8.80;99.90;;;8.21;100.00;96193.75;5082526;28;20123;-73
2022/04/23 06:01:04;;;;;;;26.70;23.38;;;8.90;99.90;;;8.20;100.00;96195.50;5083034;28;20285;-73
2022/04/23 06:03:32;;;;;;;27.42;23.20;;;9.10;99.90;;;8.18;100.00;96187.00;5087581;28;20117;-73
2022/04/23 06:05:59;;;;;;;25.20;22.42;;;9.10;99.90;;;8.40;100.00;96196.19;5079399;28;20072;-73
2022/04/23 06:08:27;;;;;;;26.30;23.27;;;9.20;99.90;;;8.41;100.00;96182.34;5083204;28;20506;-73
2022/04/23 06:10:53;;;;;;;24.13;21.65;;;9.30;99.90;;;8.68;100.00;96195.47;5080914;28;20139;-73
2022/04/23 06:13:20;;;;;;;25.90;21.75;;;9.50;99.90;;;8.71;100.00;96188.38;5079272;28;20140;-73
2022/04/23 06:15:48;;;;;;;30.17;22.88;;;9.50;99.90;;;8.65;100.00;96199.06;5086587;28;20072;-73
2022/04/23 06:18:15;;;;;;;26.02;21.75;;;9.50;99.90;;;8.86;100.00;96197.00;5081953;28;20071;-73
2022/04/23 06:20:42;;;;;;;26.30;21.27;;;9.60;99.90;;;8.76;100.00;96198.47;5093826;28;20048;-73
2022/04/23 06:23:09;;;;;;;25.58;21.25;;;9.50;99.90;;;8.84;100.00;96200.59;5084264;28;20087;-73
2022/04/23 06:25:36;;;;;;;24.25;21.63;;;9.60;99.90;;;9.04;100.00;96191.69;5083923;28;20048;-73
2022/04/23 06:28:04;;;;;;;24.83;19.80;;;9.70;99.90;;;9.26;100.00;96192.09;5085779;28;20067;-73
2022/04/23 06:30:31;;;;;;;24.42;21.40;;;9.90;99.90;;;9.31;100.00;96194.41;5083354;28;20063;-73
2022/04/23 06:32:58;;;;;;;23.25;18.70;;;10.00;99.90;;;9.37;100.00;96188.84;5079602;28;20048;-73
2022/04/23 06:35:25;;;;;;;22.88;18.92;;;10.10;99.90;;;9.46;100.00;96195.22;5079112;28;20514;-73
2022/04/23 06:37:54;;;;;;;20.25;17.15;;;10.20;99.90;;;9.43;100.00;96188.47;5082745;28;20047;-73
2022/04/23 06:40:21;;;;;;;21.42;17.13;;;10.30;99.90;;;9.81;100.00;96193.91;5077128;28;20044;-73
2022/04/23 06:42:48;;;;;;;20.05;17.15;;;10.50;99.90;;;10.00;100.00;96190.19;5085231;28;20076;-73
2022/04/23 06:45:15;;;;;;;21.17;17.50;;;10.60;99.90;;;9.81;100.00;96190.50;5077614;28;20447;-73
2022/04/23 06:47:42;;;;;;;22.65;17.40;;;10.70;99.90;;;10.18;100.00;96190.78;5081786;28;20479;-73
2022/04/23 06:50:09;;;;;;;18.67;15.52;;;10.80;99.90;;;10.32;100.00;96192.53;5081933;28;20143;-73
2022/04/23 06:52:36;;;;;;;18.55;15.80;;;10.90;99.90;;;10.53;100.00;96192.91;5082040;28;20123;-73
2022/04/23 06:55:04;;;;;;;20.08;15.82;;;11.20;99.90;;;10.79;100.00;96189.47;5079823;28;20426;-73
2022/04/23 06:57:31;;;;;;;16.90;14.40;;;11.30;99.90;;;10.78;100.00;96192.97;5079747;28;20102;-73
2022/04/23 07:00:02;;;;;;;18.35;15.02;;;11.50;99.90;;;10.77;100.00;96175.75;5086368;28;20056;-73
2022/04/23 07:02:29;;;;;;;19.70;15.27;;;11.60;99.90;;;10.56;100.00;96184.94;5079896;28;20132;-72
2022/04/23 07:04:56;;;;;;;16.00;13.98;;;11.70;99.90;;;10.72;100.00;96185.63;5081767;28;20059;-73
2022/04/23 07:07:23;;;;;;;16.75;14.27;;;11.70;99.90;;;10.78;100.00;96186.97;5078736;28;20084;-73
2022/04/23 07:09:50;;;;;;;17.27;14.52;;;11.80;99.90;;;11.01;100.00;96182.84;5082308;28;20135;-73
2022/04/23 07:12:17;;;;;;;17.15;14.50;;;11.80;99.90;;;11.10;100.00;96184.81;5082165;28;20075;-73
2022/04/23 07:14:44;;;;;;;14.38;12.88;;;11.90;99.90;;;11.23;100.00;96179.66;5082654;28;20139;-73
2022/04/23 07:17:11;;;;;;;16.40;13.88;;;12.10;99.90;;;11.10;100.00;96183.06;5079091;28;20545;-73
2022/04/23 07:19:40;;;;;;;13.85;12.32;;;12.00;99.90;;;11.53;100.00;96181.91;5080700;28;20855;-73
2022/04/23 07:22:09;;;;;;;12.02;10.77;;;12.20;99.90;;;11.99;100.00;96186.53;5079468;28;20486;-73
2022/04/23 07:24:37;;;;;;;13.23;11.88;;;12.50;99.90;;;11.76;100.00;96182.94;5081788;28;20044;-73
2022/04/23 07:27:05;;;;;;;14.00;11.73;;;12.70;99.90;;;12.05;100.00;96187.91;5078987;28;20453;-73
2022/04/23 07:29:32;;;;;;;15.23;11.80;;;12.70;99.90;;;11.72;100.00;96181.47;5081717;28;20052;-73
2022/04/23 07:32:00;;;;;;;14.05;12.55;;;12.70;99.90;;;11.84;100.00;96182.41;5081734;28;20040;-72
2022/04/23 07:37:31;;;;;;;14.05;12.55;;;12.60;99.90;;;12.00;100.00;96190.81;5082004;28;20054;-72
2022/04/23 07:40:02;;;;;;;13.85;12.05;;;12.70;99.90;;;11.63;100.00;96182.97;5084144;28;20048;-72
2022/04/23 07:42:29;;;;;;;13.85;12.35;;;12.60;99.90;;;11.73;100.00;96185.75;5079167;28;20207;-73
2022/04/23 07:44:56;;;;;;;12.93;11.18;;;12.70;99.90;;;11.79;100.00;96181.88;5083316;28;20109;-72
2022/04/23 07:47:28;;;;;;;22.45;11.27;;;;;;;12.04;100.00;96175.81;5079578;28;20150;-72
2022/04/23 07:49:55;;;;;;;14.10;11.23;;;12.90;99.90;;;12.01;100.00;96183.84;5081067;28;20060;-72
2022/04/23 07:52:22;;;;;;;13.68;11.25;;;12.90;99.90;;;12.27;100.00;96180.22;5069213;28;20079;-72
2022/04/23 07:54:49;;;;;;;14.43;12.05;;;13.10;99.90;;;12.21;100.00;96174.63;5078040;28;20121;-72
2022/04/23 07:57:22;;;;;;;13.00;10.85;;;13.00;99.90;;;12.48;100.00;96185.66;5082709;28;20146;-72
2022/04/23 07:59:49;;;;;;;11.60;10.40;;;13.10;99.90;;;12.53;100.00;96180.13;5082689;28;20071;-72
2022/04/23 08:02:18;;;;;;;12.43;11.10;;;;;;;12.40;100.00;96182.75;5078821;28;20695;-73
2022/04/23 08:04:47;;;;;;;12.88;10.75;;;;;;;12.55;100.00;96176.47;5080143;28;20052;-73
2022/04/23 08:07:15;;;;;;;10.80;9.15;;;;;;;13.08;100.00;96167.41;5079708;28;20048;-74
2022/04/23 08:09:42;;;;;;;11.43;10.13;;;13.60;99.90;;;12.62;100.00;96165.59;5086116;28;20056;-74
2022/04/23 08:12:10;;;;;;;11.80;10.43;;;13.50;99.90;;;12.76;100.00;96168.84;5073049;28;20090;-72
2022/04/23 08:14:38;;;;;;;11.18;9.98;;;13.50;99.90;;;12.83;100.00;96164.00;5082432;28;21508;-72
2022/04/23 08:17:05;;;;;;;10.60;9.50;;;13.60;99.90;;;12.99;100.00;96161.09;5078978;28;20063;-73
2022/04/23 08:19:33;;;;;;;12.20;8.75;;;13.90;99.90;;;13.31;100.00;96165.69;5082069;28;20048;-73
2022/04/23 08:22:01;;;;;;;9.90;8.38;;;14.10;99.90;;;13.80;100.00;96161.91;5075615;28;20047;-73
2022/04/23 08:24:30;;;;;;;11.82;9.27;;;14.30;99.90;;;13.55;100.00;96163.00;5081997;28;20200;-73
2022/04/23 08:26:57;;;;;;;11.35;9.30;;;14.40;99.90;;;13.12;100.00;96161.84;5078154;28;20051;-73
2022/04/23 08:32:10;;;;;;;8.13;7.10;;;14.70;99.90;;;14.34;100.00;96158.47;5075788;28;20092;-73
2022/04/23 08:34:37;;;;;;;8.27;7.30;;;15.10;99.90;;;14.44;100.00;96159.41;5077491;28;20416;-73
2022/04/23 08:37:04;;;;;;;9.88;8.35;;;15.20;99.90;;;14.03;100.00;96160.09;5078684;28;20130;-73
2022/04/23 08:39:31;;;;;;;8.70;7.80;;;15.20;99.90;;;14.28;100.00;96164.19;5081931;28;20403;-73
2022/04/23 08:41:59;;;;;;;8.70;7.80;;;15.30;99.90;;;14.00;100.00;96165.53;5074541;28;20140;-73
2022/04/23 08:44:26;;;;;;;11.65;8.80;;;15.10;99.90;;;14.45;100.00;96165.44;5078798;28;20084;-73
2022/04/23 08:46:55;;;;;;;9.68;8.65;;;15.30;99.90;;;14.16;100.00;96158.19;5079606;28;20478;-73
2022/04/23 08:49:35;;;;;;;7.50;6.70;;;15.20;99.90;;;14.89;100.00;96157.56;5082043;28;20132;-72
2022/04/23 08:52:32;;;;;;;9.18;8.18;;;15.40;99.90;;;14.58;100.00;96165.31;5074967;28;20092;-72
2022/04/23 08:55:02;;;;;;;8.15;7.35;;;15.60;99.90;;;15.56;100.00;96170.22;5083915;28;20392;-72
2022/04/23 08:57:29;;;;;;;8.90;8.00;;;15.90;99.90;;;15.25;100.00;96166.75;5062804;28;20048;-72
2022/04/23 08:59:57;;;;;;;9.30;7.43;;;16.00;99.90;;;15.79;100.00;96157.00;5082700;28;20131;-71
2022/04/23 09:02:26;;;;;;;8.52;7.65;;;16.20;99.90;;;15.51;100.00;96171.56;5075779;28;20099;-72
2022/04/23 09:04:54;;;;;;;9.07;8.18;;;16.10;99.90;;;14.40;100.00;96165.81;5076572;28;20044;-72
2022/04/23 09:07:26;;;;;;;9.95;8.57;;;15.80;99.90;;;13.58;100.00;96167.94;5081112;28;20505;-72
2022/04/23 09:09:56;;;;;;;;;;;15.00;99.90;;;13.78;100.00;96169.84;5078759;28;20068;-72
2022/04/23 09:12:26;;;;;;;9.77;7.57;;;15.00;99.90;;;14.12;100.00;96172.41;5082331;28;20036;-72
2022/04/23 09:23:37;;;;;;;8.73;7.72;;;15.10;99.90;;;14.20;100.00;96172.63;5077581;28;20044;-72
2022/04/23 09:23:40;;;;;;;8.13;6.97;;;15.20;99.90;;;14.16;100.00;96162.53;5079331;28;20136;-73
2022/04/23 09:26:18;;;;;;;7.72;6.93;;;15.00;99.90;;;14.61;100.00;96170.28;5076169;28;20055;-74
2022/04/23 09:28:46;;;;;;;6.60;5.90;;;15.20;99.90;;;15.22;100.00;96162.59;5073920;28;20048;-73
2022/04/23 09:31:18;;;;;;;7.20;6.13;;;15.60;99.90;;;14.83;100.00;96174.59;5079503;28;20053;-73
2022/04/23 09:33:49;;;;;;;7.57;5.75;;;15.60;99.90;;;15.31;100.00;96171.47;5081744;28;20066;-73
2022/04/23 09:36:16;;;;;;;5.88;5.28;;;15.90;99.90;;;15.09;100.00;96176.81;5076974;28;20131;-73
2022/04/23 09:38:43;;;;;;;6.30;5.18;;;15.90;99.90;;;15.91;100.00;96170.81;5078723;28;20076;-73
2022/04/23 09:41:15;;;;;;;9.93;7.18;;;16.40;99.90;;;16.44;100.00;96176.56;5078084;28;20516;-73
2022/04/23 09:43:45;;;;;;;12.75;7.80;;;16.90;99.90;;;16.82;100.00;96176.75;5079247;28;20143;-73
2022/04/23 09:46:12;;;;;;;6.60;5.53;;;17.20;99.90;;;17.22;100.00;96160.88;5074616;28;20114;-73
2022/04/23 09:48:43;;;;;;;6.47;5.00;;;17.30;99.90;;;16.96;100.00;96176.34;5072920;28;20512;-72
2022/04/23 09:51:24;;;;;;;4.45;3.72;;;17.40;99.90;;;17.67;100.00;96173.28;5074042;28;20090;-73
2022/04/23 09:53:54;;;;;;;6.32;5.35;;;17.90;99.90;;;17.13;100.00;96174.81;5083216;28;20414;-73
2022/04/23 09:56:25;;;;;;;8.18;4.00;;;18.00;99.90;;;16.72;100.00;96177.56;5068465;28;20056;-73
2022/04/23 09:58:54;;;;;;;5.82;5.07;;;17.60;99.90;;;16.35;100.00;96173.94;5074813;28;20041;-73
2022/04/23 10:01:23;;;;;;;6.07;4.95;;;17.50;99.90;;;16.38;100.00;96164.03;5081694;28;20080;-73
2022/04/23 10:03:53;;;;;;;5.32;4.82;;;17.60;99.90;;;16.20;100.00;96169.09;5079677;28;20522;-73
2022/04/23 10:06:23;;;;;;;4.97;4.35;;;17.30;99.90;;;17.07;100.00;96168.31;5083275;28;20062;-73
2022/04/23 10:08:57;;;;;;;4.93;4.30;;;17.60;99.90;;;16.97;100.00;96167.53;5080507;28;20083;-73
2022/04/23 10:11:31;;;;;;;6.38;4.10;;;17.70;99.90;;;17.92;100.00;96173.63;5082419;28;20055;-73
2022/04/23 10:14:03;;;;;;;4.55;3.90;;;18.10;99.90;;;18.46;100.00;96171.13;5084308;28;20132;-73
2022/04/23 10:16:35;;;;;;;6.13;4.05;;;18.80;99.90;;;18.47;100.00;96173.59;5081910;28;20131;-72
2022/04/23 10:19:04;;;;;;;4.30;3.90;;;;;;;18.30;100.00;96177.03;5085893;28;20074;-73
2022/04/23 10:21:42;;;;;;;4.38;3.33;;;18.90;99.90;;;19.31;100.00;96168.91;5081670;28;20048;-73
2022/04/23 10:24:34;;;;;;;3.95;3.40;;;19.40;99.90;;;18.05;100.00;96171.50;5080773;28;20283;-72
2022/04/23 10:27:10;;;;;;;;;;;19.60;99.90;;;18.00;100.00;96170.28;5084311;28;20080;-72
2022/04/23 10:29:37;;;;;;;6.25;4.00;;;19.20;99.90;;;17.44;100.00;96172.81;5081376;28;20261;-72
2022/04/23 10:32:11;;;;;;;4.00;3.42;;;18.60;99.90;;;18.42;100.00;96173.22;5087022;28;20050;-72